Aviation Digital Data Service (ADDS)

Output produced by METARs form (0210 UTC 22 September 2014)
found at http://aviationweather.gov/adds/metars/
 
KRWI 212340Z 2200/2224 20008KT P6SM SCT250 
     FM220900 30007KT P6SM BKN045 BKN110